Terminal Aerodrome Forecast
Issued by NWS

Home | Current Version | Previous Version | Text Only | Print | Product List | Glossary On
Versions: 1 2 3 4 5 6 7 8 9 10 11 12 13
000
FTUS46 KMFR 031139
TAFLMT
TAF
KLMT 031139Z 0312/0412 30012KT P6SM BKN040
     FM031900 32008KT P6SM FEW060
     FM032300 31012G18KT P6SM FEW060 FEW250
     FM040400 32006KT P6SM FEW250=

USA.gov is the U.S. government's official web portal to all federal, state and local government web resources and services.